Time;durP1;ratioP1;P1;durP2;ratioP2;P2;SDS_P1;SDS_P2;PMS_P1;PMS_P2;Temp;Humidity;BMP_temperature;BMP_pressure;BME280_temperature;BME280_humidity;BME280_pressure;Samples;Min_cycle;Max_cycle;Signal;HPM_P1;HPM_P2
2023/08/02 00:01:51;;;;;;;1.50;1.00;;;17.00;98.20;;;;;;5042704;28;20513;-82
2023/08/02 00:04:19;;;;;;;1.53;1.00;;;17.00;98.20;;;;;;5050118;28;20482;-81
2023/08/02 00:06:46;;;;;;;1.53;1.00;;;16.90;98.20;;;;;;5043269;28;20486;-81
2023/08/02 00:09:13;;;;;;;1.50;0.90;;;16.90;98.20;;;;;;5051007;28;20483;-82
2023/08/02 00:11:40;;;;;;;1.57;1.00;;;16.90;98.20;;;;;;5039824;28;20478;-81
2023/08/02 00:14:06;;;;;;;1.50;1.00;;;16.80;98.20;;;;;;5049712;28;21010;-82
2023/08/02 00:16:33;;;;;;;1.53;1.00;;;16.80;98.20;;;;;;5042671;28;20542;-81
2023/08/02 00:19:00;;;;;;;1.53;1.00;;;16.80;98.20;;;;;;5049619;28;20455;-82
2023/08/02 00:21:28;;;;;;;1.53;1.00;;;16.80;98.20;;;;;;5038916;28;20478;-79
2023/08/02 00:23:55;;;;;;;1.50;0.90;;;16.80;98.20;;;;;;5048544;28;20474;-81
2023/08/02 00:26:22;;;;;;;1.50;1.00;;;16.70;98.20;;;;;;5040604;28;20478;-83
2023/08/02 00:28:48;;;;;;;1.50;1.00;;;16.70;98.20;;;;;;5057372;28;20490;-80
2023/08/02 00:31:15;;;;;;;1.60;1.10;;;16.70;98.20;;;;;;5040634;28;20482;-82
2023/08/02 00:33:42;;;;;;;1.50;0.97;;;16.70;98.20;;;;;;5058389;28;20867;-82
2023/08/02 00:36:09;;;;;;;1.50;1.00;;;16.60;98.20;;;;;;5040141;28;20488;-81
2023/08/02 00:38:37;;;;;;;1.50;0.90;;;16.60;98.20;;;;;;5049224;28;20537;-82
2023/08/02 00:41:04;;;;;;;1.50;1.00;;;16.60;98.20;;;;;;5040135;28;20481;-82
2023/08/02 00:43:37;;;;;;;1.50;0.90;;;16.60;98.20;;;;;;5048402;28;20478;-81
2023/08/02 00:46:04;;;;;;;1.50;1.00;;;16.60;98.20;;;;;;5039855;28;20485;-81
2023/08/02 00:48:31;;;;;;;1.53;1.10;;;16.50;98.20;;;;;;5048756;28;20486;-81
2023/08/02 00:50:58;;;;;;;1.50;0.90;;;16.50;98.20;;;;;;5039768;28;20466;-82
2023/08/02 00:53:24;;;;;;;1.60;1.10;;;16.50;98.20;;;;;;5047996;28;20462;-82
2023/08/02 00:55:53;;;;;;;1.50;1.00;;;16.50;98.20;;;;;;5040255;28;20474;-81
2023/08/02 00:58:20;;;;;;;1.53;1.00;;;16.40;98.20;;;;;;5061600;28;20552;-82
2023/08/02 01:00:47;;;;;;;1.57;1.00;;;16.40;98.20;;;;;;5038784;28;20466;-81
2023/08/02 01:03:14;;;;;;;1.50;1.00;;;16.40;98.20;;;;;;5063593;28;20477;-81
2023/08/02 01:05:46;;;;;;;1.50;1.00;;;16.40;98.20;;;;;;5050279;28;20835;-80
2023/08/02 01:08:21;;;;;;;1.50;1.00;;;16.40;98.20;;;;;;5025727;28;20485;-81
2023/08/02 01:10:55;;;;;;;1.50;0.90;;;16.30;98.20;;;;;;5044175;28;21436;-81
2023/08/02 01:13:26;;;;;;;1.57;1.00;;;16.30;98.20;;;;;;5048270;28;20478;-81
2023/08/02 01:15:53;;;;;;;1.53;1.00;;;16.30;98.20;;;;;;5043680;28;20469;-81
2023/08/02 01:18:21;;;;;;;1.60;1.10;;;16.30;98.20;;;;;;5062358;28;20530;-82
2023/08/02 01:20:49;;;;;;;1.57;1.00;;;16.30;98.20;;;;;;5047060;28;20468;-81
2023/08/02 01:23:15;;;;;;;1.50;1.00;;;16.30;98.20;;;;;;5055497;28;20843;-80
2023/08/02 01:25:45;;;;;;;1.50;1.00;;;16.30;98.20;;;;;;5052506;28;20458;-81
2023/08/02 01:28:17;;;;;;;1.50;1.00;;;16.40;98.20;;;;;;5025942;28;20508;-81
2023/08/02 01:30:46;;;;;;;1.50;1.00;;;16.40;98.20;;;;;;5046491;28;20468;-81
2023/08/02 01:33:14;;;;;;;1.50;1.00;;;16.40;98.20;;;;;;5024029;28;20470;-82
2023/08/02 01:35:41;;;;;;;1.50;1.00;;;16.40;98.20;;;;;;5050040;28;20466;-82
2023/08/02 01:38:10;;;;;;;1.57;1.00;;;16.40;98.20;;;;;;5054164;28;20471;-82
2023/08/02 01:40:37;;;;;;;1.50;1.00;;;16.40;98.20;;;;;;5054440;28;20469;-82
2023/08/02 01:43:03;;;;;;;1.53;1.00;;;16.50;98.20;;;;;;5046872;28;20857;-81
2023/08/02 01:45:30;;;;;;;1.50;1.00;;;16.40;98.20;;;;;;5060273;28;20481;-79
2023/08/02 01:47:57;;;;;;;1.50;1.00;;;16.50;98.20;;;;;;5036275;28;20581;-83
2023/08/02 01:50:24;;;;;;;1.50;1.00;;;16.50;98.20;;;;;;5053168;28;20516;-81
2023/08/02 01:52:51;;;;;;;1.50;1.00;;;16.50;98.20;;;;;;5038659;28;20477;-81
2023/08/02 01:55:19;;;;;;;1.53;1.00;;;16.50;98.20;;;;;;5054436;28;20557;-82
2023/08/02 01:57:46;;;;;;;1.50;1.00;;;16.50;98.20;;;;;;5039732;28;20478;-81
2023/08/02 02:00:13;;;;;;;1.53;1.00;;;16.50;98.20;;;;;;5053264;28;20465;-82
2023/08/02 02:02:40;;;;;;;1.50;1.00;;;16.50;98.20;;;;;;5037214;28;20474;-80
2023/08/02 02:05:07;;;;;;;1.50;0.97;;;16.50;98.20;;;;;;5046395;28;20892;-82
2023/08/02 02:07:34;;;;;;;1.50;0.90;;;16.50;98.20;;;;;;5041159;28;21028;-81
2023/08/02 02:10:01;;;;;;;1.53;1.10;;;16.60;98.20;;;;;;5054571;28;20478;-83
2023/08/02 02:12:29;;;;;;;1.57;1.00;;;16.60;98.20;;;;;;5040397;28;20510;-83
2023/08/02 02:14:56;;;;;;;1.53;1.00;;;16.60;98.20;;;;;;5047832;28;20524;-82
2023/08/02 02:17:23;;;;;;;1.50;1.00;;;16.60;98.20;;;;;;5037879;28;20487;-82
2023/08/02 02:19:50;;;;;;;1.50;1.00;;;16.70;98.20;;;;;;5054273;28;20936;-81
2023/08/02 02:22:16;;;;;;;1.50;1.00;;;16.70;98.20;;;;;;5042239;28;20482;-80
2023/08/02 02:24:44;;;;;;;1.50;1.00;;;16.70;98.20;;;;;;5050576;28;20486;-83
2023/08/02 02:27:12;;;;;;;1.50;1.00;;;16.70;98.20;;;;;;5038150;28;20538;-82
2023/08/02 02:29:40;;;;;;;1.60;1.10;;;16.70;98.20;;;;;;5050206;28;20639;-81
2023/08/02 02:32:07;;;;;;;1.50;1.00;;;16.70;98.20;;;;;;5034533;28;20786;-82
2023/08/02 02:34:34;;;;;;;1.50;1.00;;;16.70;98.20;;;;;;5050815;28;20486;-83
2023/08/02 02:37:00;;;;;;;1.50;0.93;;;16.70;98.20;;;;;;5041753;28;20487;-82
2023/08/02 02:39:27;;;;;;;1.53;1.10;;;16.70;98.20;;;;;;5050987;28;20545;-81
2023/08/02 02:41:54;;;;;;;1.50;1.00;;;16.70;98.20;;;;;;5037991;28;20474;-81
2023/08/02 02:44:21;;;;;;;1.60;1.10;;;16.70;98.20;;;;;;5050835;28;20577;-82
2023/08/02 02:46:49;;;;;;;1.53;1.00;;;16.80;98.20;;;;;;5038493;28;20517;-81
2023/08/02 02:49:16;;;;;;;1.50;1.00;;;16.80;98.20;;;;;;5050112;28;21046;-81
2023/08/02 02:51:43;;;;;;;1.50;1.00;;;16.80;98.20;;;;;;5036889;28;20565;-82
2023/08/02 02:54:09;;;;;;;1.50;0.90;;;16.80;98.20;;;;;;5050194;28;20490;-81
2023/08/02 02:56:36;;;;;;;1.53;1.00;;;16.80;98.20;;;;;;5038332;28;20479;-82
2023/08/02 02:59:03;;;;;;;1.57;1.07;;;16.80;98.20;;;;;;5048033;28;20473;-81
2023/08/02 03:01:30;;;;;;;1.60;1.00;;;16.80;98.20;;;;;;5039947;28;20873;-83
2023/08/02 03:03:58;;;;;;;1.53;0.90;;;16.90;98.20;;;;;;5041954;28;20569;-81
2023/08/02 03:06:24;;;;;;;1.60;1.20;;;16.90;98.20;;;;;;5039953;28;20474;-81
2023/08/02 03:08:51;;;;;;;1.53;1.00;;;16.90;98.20;;;;;;5049308;28;20486;-81
2023/08/02 03:11:18;;;;;;;1.50;0.90;;;16.90;98.20;;;;;;5040341;28;20484;-81
2023/08/02 03:13:45;;;;;;;1.50;1.00;;;16.90;98.20;;;;;;5047076;28;20658;-82
2023/08/02 03:16:12;;;;;;;1.60;1.07;;;17.00;98.20;;;;;;5040214;28;20482;-81
2023/08/02 03:18:38;;;;;;;1.50;0.90;;;17.00;98.20;;;;;;5049520;28;20462;-82
2023/08/02 03:21:07;;;;;;;1.50;0.90;;;17.00;98.20;;;;;;5039943;28;20497;-81
2023/08/02 03:23:34;;;;;;;1.57;1.00;;;17.10;98.20;;;;;;5049110;28;20478;-81
2023/08/02 03:26:01;;;;;;;1.50;1.10;;;17.10;98.20;;;;;;5040418;28;20474;-80
2023/08/02 03:28:28;;;;;;;1.60;1.10;;;17.10;98.20;;;;;;5048446;28;20514;-82
2023/08/02 03:30:55;;;;;;;1.53;1.10;;;17.00;98.20;;;;;;5038145;28;20458;-83
2023/08/02 03:33:22;;;;;;;1.53;1.00;;;17.00;98.20;;;;;;5049906;28;20462;-81
2023/08/02 03:35:49;;;;;;;1.53;0.97;;;17.00;98.20;;;;;;5042845;28;20509;-80
2023/08/02 03:38:17;;;;;;;1.50;1.00;;;17.10;98.20;;;;;;5047229;28;20466;-83
2023/08/02 03:40:46;;;;;;;1.50;1.00;;;17.10;98.20;;;;;;5050048;28;20542;-82
2023/08/02 03:43:16;;;;;;;1.50;0.90;;;17.10;98.20;;;;;;5021120;28;20478;-83
2023/08/02 03:45:43;;;;;;;1.50;1.00;;;17.10;98.20;;;;;;5049869;28;20458;-80
2023/08/02 03:48:10;;;;;;;1.50;1.00;;;17.10;98.20;;;;;;5029386;28;21056;-83
2023/08/02 03:50:50;;;;;;;1.50;1.00;;;17.00;98.20;;;;;;5051592;28;20482;-82
2023/08/02 03:53:18;;;;;;;1.50;1.00;;;17.00;98.20;;;;;;5023992;28;20550;-80
2023/08/02 03:55:45;;;;;;;1.70;1.30;;;17.00;98.20;;;;;;5054600;28;20458;-82
2023/08/02 03:58:12;;;;;;;1.53;1.00;;;17.00;98.20;;;;;;5041582;28;20545;-84
2023/08/02 04:00:39;;;;;;;1.50;1.00;;;17.00;98.20;;;;;;5054591;28;20481;-83
2023/08/02 04:03:06;;;;;;;1.50;1.00;;;16.90;98.20;;;;;;5020186;28;20485;-83
2023/08/02 04:05:33;;;;;;;1.53;1.00;;;16.90;98.20;;;;;;5057182;28;21167;-81
2023/08/02 04:08:00;;;;;;;1.50;1.00;;;16.90;98.20;;;;;;5052242;28;20544;-82
2023/08/02 04:10:28;;;;;;;1.50;0.90;;;16.90;98.20;;;;;;5060338;28;20489;-82
2023/08/02 04:13:05;;;;;;;1.57;1.00;;;17.00;98.20;;;;;;5039977;28;20944;-82
2023/08/02 04:15:37;;;;;;;1.50;1.00;;;17.00;98.20;;;;;;5065710;28;20548;-84
2023/08/02 04:18:19;;;;;;;1.53;1.00;;;17.00;98.20;;;;;;5051481;28;20588;-82
2023/08/02 04:20:49;;;;;;;1.50;0.90;;;17.00;98.20;;;;;;5050943;28;21073;-82
2023/08/02 04:23:16;;;;;;;1.53;1.00;;;17.00;98.20;;;;;;5032105;28;20470;-84
2023/08/02 04:25:45;;;;;;;1.50;0.90;;;17.00;98.20;;;;;;5052566;28;20832;-82
2023/08/02 04:28:12;;;;;;;1.50;1.00;;;17.00;98.20;;;;;;5025823;28;20478;-85
2023/08/02 04:30:39;;;;;;;1.50;1.00;;;17.00;98.20;;;;;;5060992;28;20477;-85
2023/08/02 04:33:12;;;;;;;1.50;0.90;;;17.00;98.20;;;;;;5052245;28;20482;-81
2023/08/02 04:36:10;;;;;;;1.53;0.90;;;17.10;98.20;;;;;;5062688;28;20501;-79
2023/08/02 04:38:36;;;;;;;1.53;1.00;;;17.10;98.20;;;;;;5032035;28;20481;-82
2023/08/02 04:41:28;;;;;;;1.53;1.00;;;17.10;98.20;;;;;;5055247;28;20458;-81
2023/08/02 04:44:10;;;;;;;1.50;0.90;;;17.10;98.20;;;;;;5056393;28;20838;-78
2023/08/02 04:46:38;;;;;;;1.57;1.00;;;17.00;98.20;;;;;;5052334;28;20485;-79
2023/08/02 04:49:07;;;;;;;1.60;1.13;;;17.00;98.20;;;;;;5070306;28;20470;-77
2023/08/02 04:51:38;;;;;;;1.50;1.10;;;17.00;98.20;;;;;;5056105;28;20478;-79
2023/08/02 04:54:10;;;;;;;1.57;1.00;;;17.00;98.20;;;;;;5058954;28;20486;-80
2023/08/02 04:56:39;;;;;;;1.50;1.00;;;17.00;98.20;;;;;;5054197;28;20478;-82
2023/08/02 04:59:13;;;;;;;1.57;1.00;;;17.00;98.20;;;;;;5061414;28;20493;-81
2023/08/02 05:01:40;;;;;;;1.50;1.00;;;17.00;98.20;;;;;;5053163;28;20477;-84
2023/08/02 05:04:09;;;;;;;1.50;0.93;;;17.00;98.20;;;;;;5069200;28;20486;-80
2023/08/02 05:06:36;;;;;;;1.57;0.90;;;17.00;98.20;;;;;;5058605;28;20477;-82
2023/08/02 05:09:04;;;;;;;1.53;1.00;;;17.00;98.20;;;;;;5069820;28;20474;-79
2023/08/02 05:11:31;;;;;;;1.53;1.00;;;17.00;98.20;;;;;;5050262;28;20477;-82
2023/08/02 05:14:01;;;;;;;1.53;0.90;;;17.00;98.20;;;;;;5069553;28;20477;-79
2023/08/02 05:16:27;;;;;;;1.50;0.90;;;17.00;98.20;;;;;;5049307;28;20465;-83
2023/08/02 05:18:55;;;;;;;1.53;1.00;;;17.00;98.20;;;;;;5066385;28;20577;-83
2023/08/02 05:21:23;;;;;;;1.50;0.90;;;17.00;98.20;;;;;;5054147;28;21019;-79
2023/08/02 05:23:59;;;;;;;1.50;1.00;;;17.00;98.20;;;;;;5068193;28;20510;-80
2023/08/02 05:26:27;;;;;;;1.50;0.90;;;17.10;98.20;;;;;;5054360;28;20512;-78
2023/08/02 05:28:54;;;;;;;1.50;0.97;;;17.10;98.20;;;;;;5070993;28;20468;-79
2023/08/02 05:31:25;;;;;;;1.50;0.90;;;17.10;98.20;;;;;;5052252;28;20485;-84
2023/08/02 05:33:53;;;;;;;1.57;1.00;;;17.10;98.20;;;;;;5055260;28;20497;-82
2023/08/02 05:36:20;;;;;;;1.60;1.00;;;17.10;98.20;;;;;;5061905;28;20473;-80
2023/08/02 05:38:57;;;;;;;1.53;1.00;;;17.10;98.20;;;;;;5060653;28;20656;-76
2023/08/02 05:41:34;;;;;;;1.53;0.90;;;17.10;98.20;;;;;;5049751;28;20510;-79
2023/08/02 05:44:01;;;;;;;1.50;0.90;;;17.10;98.20;;;;;;5062677;28;20570;-78
2023/08/02 05:47:12;;;;;;;1.53;0.90;;;17.10;98.20;;;;;;5055137;28;20489;-80
2023/08/02 05:49:40;;;;;;;1.50;0.90;;;17.10;98.20;;;;;;5230381;23;20500;-77
2023/08/02 05:52:07;;;;;;;1.50;0.90;;;17.10;98.20;;;;;;5009577;28;20831;-78
2023/08/02 05:54:34;;;;;;;1.50;0.90;;;17.10;98.20;;;;;;5027454;28;20522;-78
2023/08/02 05:57:01;;;;;;;1.50;1.00;;;17.10;98.20;;;;;;5024319;28;20579;-77
2023/08/02 05:59:28;;;;;;;1.50;1.00;;;17.10;98.20;;;;;;5032916;28;20463;-78
2023/08/02 06:01:55;;;;;;;1.53;0.90;;;17.10;98.20;;;;;;5019744;28;20471;-78
2023/08/02 06:04:22;;;;;;;1.57;1.00;;;17.10;98.20;;;;;;5033253;28;21134;-77
2023/08/02 06:06:50;;;;;;;1.53;0.90;;;17.10;98.20;;;;;;5019177;28;20507;-78
2023/08/02 06:09:17;;;;;;;1.57;0.90;;;17.10;98.20;;;;;;5026095;28;20822;-78
2023/08/02 06:11:44;;;;;;;1.50;1.00;;;17.10;98.20;;;;;;5016936;28;20570;-78
2023/08/02 06:14:11;;;;;;;1.57;0.90;;;17.10;98.20;;;;;;5027682;28;20593;-78
2023/08/02 06:16:38;;;;;;;1.50;0.90;;;17.20;98.20;;;;;;5019178;28;21192;-78
2023/08/02 06:19:04;;;;;;;1.70;1.10;;;17.20;98.20;;;;;;5029429;28;20468;-78
2023/08/02 06:21:32;;;;;;;1.53;1.00;;;17.20;98.20;;;;;;5022481;28;20489;-78
2023/08/02 06:24:01;;;;;;;1.57;0.90;;;17.10;98.20;;;;;;5023093;28;20487;-78
2023/08/02 06:26:28;;;;;;;1.50;0.90;;;17.10;98.20;;;;;;5021363;28;20535;-80
2023/08/02 06:28:55;;;;;;;1.50;0.90;;;17.10;98.20;;;;;;5027046;28;20847;-79
2023/08/02 06:31:22;;;;;;;1.57;1.10;;;17.10;98.20;;;;;;5021773;28;20953;-79
2023/08/02 06:33:48;;;;;;;1.50;1.00;;;17.10;98.20;;;;;;5031148;28;20984;-78
2023/08/02 06:36:15;;;;;;;1.50;0.90;;;17.00;98.20;;;;;;5018641;28;20475;-78
2023/08/02 06:38:45;;;;;;;1.53;1.00;;;17.00;98.20;;;;;;5026889;28;20495;-78
2023/08/02 06:41:14;;;;;;;1.50;0.90;;;17.00;98.20;;;;;;5020465;28;20900;-78
2023/08/02 06:43:40;;;;;;;1.53;1.00;;;17.00;98.20;;;;;;5025204;28;20491;-77
2023/08/02 06:46:07;;;;;;;1.50;0.90;;;17.00;98.20;;;;;;5018027;28;20482;-79
2023/08/02 06:48:34;;;;;;;1.53;0.90;;;17.00;98.20;;;;;;5027498;28;20970;-77
2023/08/02 06:51:01;;;;;;;1.50;1.00;;;17.00;98.20;;;;;;5018069;28;20492;-77
2023/08/02 06:53:28;;;;;;;1.60;1.10;;;17.00;98.20;;;;;;5027489;28;20498;-79
2023/08/02 06:55:55;;;;;;;1.53;0.90;;;17.00;98.20;;;;;;5014947;28;20487;-78
2023/08/02 06:58:23;;;;;;;1.53;0.90;;;17.00;98.20;;;;;;5031861;28;20467;-77
2023/08/02 07:00:50;;;;;;;1.60;1.17;;;17.00;98.20;;;;;;5013202;28;20456;-77
2023/08/02 07:03:17;;;;;;;1.50;1.00;;;17.00;98.20;;;;;;5020872;28;20479;-76
2023/08/02 07:05:45;;;;;;;1.53;0.90;;;17.00;98.20;;;;;;5026582;28;20465;-76
2023/08/02 07:08:12;;;;;;;1.50;0.90;;;17.00;98.20;;;;;;5018775;28;20475;-77
2023/08/02 07:10:39;;;;;;;1.70;1.40;;;17.00;98.20;;;;;;5026190;28;20479;-75
2023/08/02 07:13:06;;;;;;;1.53;1.00;;;17.00;98.20;;;;;;5016214;28;20479;-77
2023/08/02 07:15:35;;;;;;;1.57;0.90;;;17.10;98.20;;;;;;5022449;28;20550;-77
2023/08/02 07:18:02;;;;;;;1.57;0.90;;;17.10;98.20;;;;;;5015836;28;20567;-78
2023/08/02 07:20:28;;;;;;;1.53;0.90;;;17.10;98.20;;;;;;5026249;28;20495;-77
2023/08/02 07:22:55;;;;;;;1.60;1.00;;;17.20;98.20;;;;;;5013086;28;20475;-77
2023/08/02 07:25:22;;;;;;;1.57;1.00;;;17.20;98.20;;;;;;5030987;28;20522;-78
2023/08/02 07:27:50;;;;;;;1.57;0.90;;;17.20;98.20;;;;;;5018098;28;20493;-79
2023/08/02 07:30:17;;;;;;;1.50;1.00;;;17.30;98.20;;;;;;5026196;28;20563;-78
2023/08/02 07:32:45;;;;;;;1.57;0.90;;;17.30;98.20;;;;;;5020586;28;20491;-78
2023/08/02 07:35:13;;;;;;;1.50;1.00;;;17.30;98.20;;;;;;5024528;28;20479;-79
2023/08/02 07:37:40;;;;;;;1.50;0.90;;;17.30;98.20;;;;;;5020803;28;20483;-78
2023/08/02 07:40:07;;;;;;;1.60;0.90;;;17.30;98.20;;;;;;5027186;28;20479;-78
2023/08/02 07:42:34;;;;;;;1.60;1.00;;;17.40;98.20;;;;;;5024195;28;20474;-78
2023/08/02 07:45:03;;;;;;;1.53;0.90;;;17.50;98.20;;;;;;5027390;28;20630;-79
2023/08/02 07:47:30;;;;;;;2.07;1.67;;;17.60;98.20;;;;;;5017844;28;20870;-79
2023/08/02 07:49:58;;;;;;;1.50;0.90;;;17.80;98.20;;;;;;5027000;28;20964;-79
2023/08/02 07:52:25;;;;;;;1.50;0.90;;;17.90;98.20;;;;;;5019661;28;20486;-79
2023/08/02 07:54:57;;;;;;;1.60;1.00;;;18.00;98.20;;;;;;5024955;28;20996;-80
2023/08/02 07:57:26;;;;;;;1.60;0.90;;;18.20;98.20;;;;;;5021807;28;20479;-79
2023/08/02 07:59:53;;;;;;;1.60;1.00;;;18.30;98.20;;;;;;5028570;28;20470;-80
2023/08/02 08:02:20;;;;;;;1.57;0.90;;;18.40;98.20;;;;;;5020544;28;20587;-80
2023/08/02 08:04:50;;;;;;;1.50;1.00;;;18.60;98.20;;;;;;5019939;28;20479;-79
2023/08/02 08:07:18;;;;;;;1.53;1.00;;;18.70;98.20;;;;;;5012885;28;20502;-79
2023/08/02 08:09:45;;;;;;;1.50;0.93;;;18.80;98.20;;;;;;5028106;28;20541;-79
2023/08/02 08:12:13;;;;;;;1.53;0.90;;;18.80;98.20;;;;;;5014342;28;20484;-78
2023/08/02 08:14:42;;;;;;;1.53;0.90;;;18.80;98.20;;;;;;5029519;28;20502;-79
2023/08/02 08:17:09;;;;;;;1.60;0.97;;;18.90;98.20;;;;;;5014381;28;20475;-78
2023/08/02 08:19:36;;;;;;;1.53;0.90;;;18.90;98.20;;;;;;5028528;28;20526;-79
2023/08/02 08:22:04;;;;;;;1.50;0.90;;;19.10;98.20;;;;;;5015289;28;20493;-79
2023/08/02 08:24:32;;;;;;;1.50;0.90;;;19.10;98.20;;;;;;5025601;28;21004;-79
2023/08/02 08:26:59;;;;;;;1.53;0.90;;;19.10;98.20;;;;;;5012867;28;20495;-78
2023/08/02 08:29:27;;;;;;;1.53;0.90;;;19.10;98.20;;;;;;5024874;28;20470;-79
2023/08/02 08:31:54;;;;;;;1.50;0.90;;;19.10;98.20;;;;;;5015027;28;20487;-78
2023/08/02 08:34:21;;;;;;;1.60;1.00;;;19.10;98.20;;;;;;5024554;28;20770;-78
2023/08/02 08:36:48;;;;;;;1.57;0.90;;;19.00;98.20;;;;;;5021416;28;20762;-79
2023/08/02 08:39:15;;;;;;;1.57;0.90;;;19.00;98.20;;;;;;5025558;28;20495;-79
2023/08/02 08:41:44;;;;;;;1.50;0.90;;;19.00;98.20;;;;;;5017964;28;20533;-79
2023/08/02 08:47:28;;;;;;;1.57;1.00;;;19.10;98.20;;;;;;4980970;28;20514;-79
2023/08/02 08:50:01;;;;;;;1.50;0.90;;;19.20;98.20;;;;;;5027464;28;20542;-79
2023/08/02 08:52:32;;;;;;;1.57;0.90;;;19.30;98.20;;;;;;5017109;28;20471;-77
2023/08/02 08:55:00;;;;;;;1.60;1.10;;;19.30;98.20;;;;;;5023390;28;20546;-78
2023/08/02 08:57:30;;;;;;;1.53;0.90;;;19.20;98.20;;;;;;5021007;28;21010;-78
2023/08/02 08:59:57;;;;;;;1.57;0.97;;;19.20;98.20;;;;;;5018748;28;20490;-77
2023/08/02 09:02:24;;;;;;;1.50;0.90;;;19.30;98.20;;;;;;5016769;28;20473;-77
2023/08/02 09:04:53;;;;;;;1.50;0.90;;;19.50;98.20;;;;;;5022610;28;20510;-78
2023/08/02 09:07:19;;;;;;;1.53;0.90;;;19.50;98.20;;;;;;5015271;28;20474;-78
2023/08/02 09:09:47;;;;;;;1.50;1.00;;;19.50;98.20;;;;;;5026581;28;20473;-77
2023/08/02 09:12:13;;;;;;;1.50;0.90;;;19.50;98.20;;;;;;5014791;28;20486;-78
2023/08/02 09:15:00;;;;;;;1.50;0.90;;;19.50;98.20;;;;;;5022946;28;20510;-77
2023/08/02 09:17:26;;;;;;;1.50;0.90;;;19.40;98.20;;;;;;5019981;28;20569;-77
2023/08/02 09:20:07;;;;;;;1.50;1.00;;;19.40;98.20;;;;;;5025739;28;20463;-78
2023/08/02 09:22:34;;;;;;;1.50;0.90;;;19.70;98.20;;;;;;5017020;28;20475;-77
2023/08/02 09:25:03;;;;;;;1.50;0.90;;;19.80;98.20;;;;;;5022837;28;20490;-78
2023/08/02 09:27:31;;;;;;;1.60;1.30;;;19.90;98.20;;;;;;5013229;28;20489;-78
2023/08/02 09:29:59;;;;;;;1.57;1.00;;;20.00;98.20;;;;;;5029961;28;20474;-79
2023/08/02 09:32:27;;;;;;;1.50;0.90;;;20.10;98.20;;;;;;5021913;28;20795;-79
2023/08/02 09:34:56;;;;;;;1.50;0.90;;;20.20;98.20;;;;;;5028233;28;20493;-79
2023/08/02 09:37:30;;;;;;;1.60;1.00;;;20.20;98.20;;;;;;5014945;28;20474;-79
2023/08/02 09:39:57;;;;;;;1.57;0.90;;;20.20;98.20;;;;;;5029410;28;20518;-79
2023/08/02 09:42:25;;;;;;;1.50;1.00;;;20.20;98.20;;;;;;5023373;28;20611;-79
2023/08/02 09:44:54;;;;;;;1.53;0.90;;;20.20;98.20;;;;;;5026812;28;20478;-78
2023/08/02 09:47:23;;;;;;;1.50;0.90;;;20.30;98.20;;;;;;5023984;28;20503;-79
2023/08/02 09:50:10;;;;;;;1.53;0.90;;;20.40;98.20;;;;;;5027563;28;20464;-78
2023/08/02 09:52:38;;;;;;;1.53;1.00;;;20.50;98.20;;;;;;5021041;28;20494;-79
2023/08/02 09:55:05;;;;;;;1.50;0.90;;;20.60;98.20;;;;;;5028321;28;20483;-79
2023/08/02 09:57:33;;;;;;;1.53;0.90;;;20.80;98.20;;;;;;5021206;28;20566;-79
2023/08/02 10:00:02;;;;;;;1.53;0.90;;;20.90;98.20;;;;;;5027784;28;20464;-79
2023/08/02 10:02:31;;;;;;;1.53;0.90;;;20.90;98.20;;;;;;5017841;28;20484;-78
2023/08/02 10:05:00;;;;;;;1.53;0.90;;;20.90;98.20;;;;;;5023634;28;20484;-78
2023/08/02 10:07:32;;;;;;;1.53;0.90;;;20.90;98.20;;;;;;5016564;28;20536;-78
2023/08/02 10:10:05;;;;;;;1.50;0.90;;;20.80;98.20;;;;;;5025940;28;20661;-77
2023/08/02 10:12:34;;;;;;;1.50;0.90;;;20.60;98.20;;;;;;5021599;28;20499;-78
2023/08/02 10:15:02;;;;;;;1.50;0.90;;;20.50;98.20;;;;;;5028837;28;20483;-77
2023/08/02 10:17:31;;;;;;;1.50;0.90;;;20.40;98.20;;;;;;5018591;28;20832;-78
2023/08/02 10:19:59;;;;;;;1.50;0.90;;;20.30;98.20;;;;;;5028345;28;20482;-78
2023/08/02 10:22:26;;;;;;;1.53;0.90;;;20.30;98.20;;;;;;5014442;28;20534;-78
2023/08/02 10:24:53;;;;;;;1.50;0.90;;;20.30;98.20;;;;;;5028854;28;20577;-78
2023/08/02 10:27:24;;;;;;;1.50;0.90;;;20.40;98.20;;;;;;5018255;28;20472;-78
2023/08/02 10:29:52;;;;;;;1.50;0.90;;;20.50;98.20;;;;;;5031221;28;20485;-78
2023/08/02 10:32:21;;;;;;;1.57;0.90;;;20.70;98.20;;;;;;5018293;28;20494;-79
2023/08/02 10:34:50;;;;;;;1.53;0.90;;;21.00;98.20;;;;;;5024015;28;20489;-78
2023/08/02 10:37:21;;;;;;;1.53;0.90;;;21.30;98.20;;;;;;5017888;28;20482;-78
2023/08/02 10:39:52;;;;;;;1.53;0.90;;;21.50;98.20;;;;;;5026662;28;20458;-79
2023/08/02 10:42:20;;;;;;;1.53;0.90;;;21.60;98.20;;;;;;5022111;28;20864;-78
2023/08/02 10:45:13;;;;;;;1.60;0.90;;;21.80;98.20;;;;;;5032307;28;20997;-78
2023/08/02 10:47:39;;;;;;;1.53;0.90;;;21.90;98.20;;;;;;5016214;28;20586;-79
2023/08/02 10:50:08;;;;;;;1.57;0.87;;;22.10;98.20;;;;;;5031654;28;20461;-79
2023/08/02 10:53:07;;;;;;;1.53;0.90;;;22.30;98.20;;;;;;5026948;28;20483;-79
2023/08/02 10:55:33;;;;;;;1.53;0.90;;;22.60;98.20;;;;;;5028488;28;20463;-77
2023/08/02 10:58:06;;;;;;;1.50;0.80;;;22.80;98.20;;;;;;5017272;28;20566;-77
2023/08/02 11:00:37;;;;;;;1.57;0.90;;;23.20;98.20;;;;;;5028469;28;20932;-77
2023/08/02 11:03:04;;;;;;;1.50;0.90;;;23.60;98.20;;;;;;5015849;28;20559;-78
2023/08/02 11:05:41;;;;;;;1.50;0.90;;;24.00;98.20;;;;;;5030469;28;20483;-77
2023/08/02 11:08:08;;;;;;;1.53;0.90;;;24.00;98.20;;;;;;5013647;28;20968;-77
2023/08/02 11:10:49;;;;;;;1.50;0.90;;;24.00;98.20;;;;;;5029126;28;20463;-78
2023/08/02 11:13:16;;;;;;;1.57;0.97;;;23.90;98.20;;;;;;4999763;28;20495;-76
2023/08/02 11:15:43;;;;;;;1.50;0.90;;;23.90;98.20;;;;;;5029282;28;20483;-76
2023/08/02 11:18:10;;;;;;;1.53;0.87;;;23.70;98.20;;;;;;5009717;28;20484;-76
2023/08/02 11:20:38;;;;;;;1.50;0.90;;;23.40;98.20;;;;;;5022942;28;20466;-76
2023/08/02 11:23:23;;;;;;;1.50;0.90;;;23.20;98.20;;;;;;5012773;28;21057;-78
2023/08/02 11:25:50;;;;;;;1.50;0.90;;;23.00;98.20;;;;;;5016576;28;20554;-79
2023/08/02 11:28:17;;;;;;;1.53;0.90;;;22.90;98.20;;;;;;5025275;28;20575;-79
2023/08/02 11:30:50;;;;;;;1.50;0.90;;;23.00;98.20;;;;;;5029086;28;20471;-79
2023/08/02 11:33:17;;;;;;;1.50;0.90;;;23.10;98.20;;;;;;5004170;28;21000;-80
2023/08/02 11:35:51;;;;;;;1.50;0.90;;;23.20;98.20;;;;;;5028240;28;20481;-79
2023/08/02 11:38:18;;;;;;;2.10;1.20;;;23.30;98.20;;;;;;5001949;28;20488;-79
2023/08/02 11:40:45;;;;;;;1.50;0.87;;;23.40;98.20;;;;;;5027523;28;20459;-81
2023/08/02 11:43:14;;;;;;;1.50;0.83;;;23.50;98.20;;;;;;5029904;28;21031;-79
2023/08/02 11:45:41;;;;;;;1.53;0.90;;;23.60;98.20;;;;;;5030348;28;20463;-79
2023/08/02 11:48:25;;;;;;;1.50;0.83;;;23.70;98.20;;;;;;5017240;28;20704;-80
2023/08/02 11:50:54;;;;;;;1.50;0.80;;;23.80;98.20;;;;;;5015029;28;20463;-80
2023/08/02 11:53:21;;;;;;;1.50;0.90;;;23.90;98.20;;;;;;5026194;28;20479;-80
2023/08/02 11:55:48;;;;;;;1.50;0.80;;;23.90;98.20;;;;;;5017374;28;20494;-79
2023/08/02 11:58:15;;;;;;;1.50;0.80;;;23.80;98.20;;;;;;5030075;28;20637;-80
2023/08/02 12:00:42;;;;;;;1.50;0.80;;;23.60;98.20;;;;;;5027876;28;20553;-83
2023/08/02 12:03:10;;;;;;;1.50;0.87;;;23.60;98.20;;;;;;5016194;28;20845;-78
2023/08/02 12:05:37;;;;;;;1.50;0.90;;;23.60;98.20;;;;;;5025217;28;20459;-77
2023/08/02 12:08:14;;;;;;;1.50;0.80;;;23.80;98.20;;;;;;5013022;28;20487;-75
2023/08/02 12:10:42;;;;;;;1.50;0.80;;;23.90;98.20;;;;;;5026354;28;20473;-80
2023/08/02 12:13:12;;;;;;;1.50;0.90;;;24.20;98.20;;;;;;5009126;28;20542;-81
2023/08/02 12:15:39;;;;;;;1.50;0.90;;;24.30;98.20;;;;;;5028386;28;20483;-79
2023/08/02 12:18:07;;;;;;;1.50;0.90;;;24.40;98.20;;;;;;5009848;28;20490;-80
2023/08/02 12:20:35;;;;;;;1.50;0.80;;;24.40;98.20;;;;;;5028418;28;20542;-80
2023/08/02 12:23:02;;;;;;;1.50;0.90;;;24.40;98.20;;;;;;5022525;28;20877;-79
2023/08/02 12:25:44;;;;;;;1.50;0.90;;;24.30;98.20;;;;;;5027779;28;20486;-79
2023/08/02 12:28:12;;;;;;;1.50;0.90;;;24.20;98.20;;;;;;4995479;28;20507;-79
2023/08/02 12:30:39;;;;;;;1.50;0.90;;;24.20;98.20;;;;;;5026237;28;20502;-79
2023/08/02 12:33:05;;;;;;;1.50;0.90;;;24.10;98.20;;;;;;5016992;28;20481;-80
2023/08/02 12:35:32;;;;;;;1.50;0.90;;;24.10;98.20;;;;;;5032030;28;20522;-80
2023/08/02 12:37:59;;;;;;;2.80;2.50;;;24.00;98.20;;;;;;5023739;28;20479;-78
2023/08/02 12:43:51;;;;;;;1.50;0.90;;;23.80;98.20;;;;;;5004532;28;20536;-78
2023/08/02 12:46:18;;;;;;;1.50;0.90;;;23.40;98.20;;;;;;4994496;28;20467;-77
2023/08/02 12:48:45;;;;;;;1.50;0.90;;;23.10;98.20;;;;;;5005281;28;20468;-78
2023/08/02 12:51:13;;;;;;;1.50;0.80;;;22.90;98.20;;;;;;4993945;28;20480;-79
2023/08/02 12:53:39;;;;;;;1.50;0.90;;;22.70;98.20;;;;;;5007592;28;20492;-78
2023/08/02 12:56:06;;;;;;;1.50;0.90;;;22.60;98.20;;;;;;4994322;28;20473;-78
2023/08/02 12:58:33;;;;;;;1.50;0.90;;;22.50;98.20;;;;;;5001704;28;20977;-78
2023/08/02 13:01:02;;;;;;;2.20;1.23;;;22.30;98.20;;;;;;4993509;28;20491;-78
2023/08/02 13:03:28;;;;;;;1.50;0.90;;;22.10;98.20;;;;;;5002476;28;20455;-78